Portada
METAR-TAF:

METAR-TAF

Aeroports :

Aeroport d'Essaouira-Mogador

Essaouira, Marroc

latitud: 31-31N, longitud: 009-47W, altitud: 15 m

Observació

L'informe es va fer fa 1 hora i 9 minuts, a les 06:00 UTC
Vent 4 kt del Sud/Sud-Est
Temperatura 24°C
Humitat 47%
Pressió 1016 hPa
Visibilitat: 5000 m
Escasses núvols a una alçada de 1500 ft
Cel ennuvolat a una alçada de 2600 ft

METAR: GMMI 260600Z 16004KT 5000 FEW015 BKN026 24/12 Q1016 NOSIG

Hora: 08:09 (07:09 UTC)

Pronòstic

L'informe es va fer fa 2 hores i 9 minuts, a les 05:00 UTC
Pronòstic vàlid del 26 a les 06 UTC al 27 a les 12 UTC
Vent 2 kt amb direcció variable
Visibilitat: 4000 m
Núvols disperses a una alçada de 1500 ft
Cel ennuvolat a una alçada de 2300 ft
boirina
Evolucionant progressivament
l' 26 a les 06 UTC al 26 a les 08 UTC
Vent 8 kt del Nord-Oest
Visibilitat: 8000 m
Escasses núvols a una alçada de 2000 ft

TAF: GMMI 260500Z 2606/2712 VRB02KT 4000 BR SCT015 BKN023 BECMG 2606/2608 32008KT 8000 NSW FEW020

Observacions i pronòstics meteorològics de més de 4000 aeroports (METAR i TAF).

Les estacions disponibles són els punts grocs i vermells al mapa.

Posi el ratolí al punt desitjat per veure el nom de l'estació.

Feu clic per veure les observacions i els pronòstics meteorològics.

Per canviar el mapa: feu clic els botons verds amb una creu de color negre per apropar; al botó verd amb un guió per allunyar la imatge; o en les fletxes verdes per a mapes adjacents.


METAR-TAF: